Time;durP1;ratioP1;P1;durP2;ratioP2;P2;SDS_P1;SDS_P2;PMS_P1;PMS_P2;Temp;Humidity;BMP_temperature;BMP_pressure;BME280_temperature;BME280_humidity;BME280_pressure;Samples;Min_cycle;Max_cycle;Signal;HPM_P1;HPM_P2
2021/01/29 00:01:46;;;;;;;23.92;10.30;;;;;;;0.08;73.05;98954.05;2218266;80;28209;-63
2021/01/29 00:04:48;;;;;;;22.32;11.08;;;;;;;0.09;72.97;98942.61;2183246;81;28862;-63
2021/01/29 00:07:50;;;;;;;22.10;11.43;;;;;;;0.12;73.00;98942.97;2179462;81;32158;-62
2021/01/29 00:10:54;;;;;;;21.35;12.20;;;;;;;0.11;72.94;98937.29;2202200;79;33050;-63
2021/01/29 00:13:55;;;;;;;31.48;12.98;;;;;;;0.13;72.95;98940.75;2160511;79;28933;-63
2021/01/29 00:16:57;;;;;;;21.42;11.63;;;;;;;0.12;73.01;98934.63;2164996;79;27770;-63
2021/01/29 00:19:59;;;;;;;26.90;12.60;;;;;;;0.16;72.98;98942.45;2155250;81;28836;-64
2021/01/29 00:23:01;;;;;;;29.37;12.82;;;;;;;0.14;72.83;98939.41;2138606;82;31194;-65
2021/01/29 00:26:03;;;;;;;26.10;11.93;;;;;;;0.13;72.76;98944.70;2136894;82;33109;-62
2021/01/29 00:29:05;;;;;;;25.23;12.05;;;;;;;0.09;72.55;98947.00;2153845;82;28993;-62
2021/01/29 00:32:07;;;;;;;22.17;10.93;;;;;;;0.03;72.43;98944.09;2137923;82;27752;-63
2021/01/29 00:35:10;;;;;;;23.57;12.58;;;;;;;-0.02;72.39;98935.48;2130893;82;28816;-62
2021/01/29 00:38:13;;;;;;;22.22;10.43;;;;;;;-0.07;72.44;98936.91;2122889;82;31151;-62
2021/01/29 00:41:16;;;;;;;20.90;11.30;;;;;;;-0.10;72.43;98958.08;2118698;82;33109;-63
2021/01/29 00:44:18;;;;;;;22.00;10.38;;;;;;;-0.13;72.53;98959.91;2118812;82;29817;-63
2021/01/29 00:47:20;;;;;;;24.37;12.37;;;;;;;-0.16;72.47;98977.52;2123611;82;27666;-64
2021/01/29 00:50:23;;;;;;;25.40;11.48;;;;;;;-0.19;72.48;98978.94;2137951;82;29777;-64
2021/01/29 00:53:25;;;;;;;23.77;11.93;;;;;;;-0.22;72.47;98937.34;2117932;84;32130;-64
2021/01/29 00:56:26;;;;;;;21.93;10.65;;;;;;;-0.26;72.35;98951.05;2141416;82;33078;-63
2021/01/29 00:59:28;;;;;;;23.00;10.05;;;;;;;-0.31;72.47;98956.44;2144659;82;29050;-63
2021/01/29 01:02:30;;;;;;;22.22;11.95;;;;;;;-0.33;72.40;98963.97;2134362;82;27640;-63
2021/01/29 01:05:32;;;;;;;21.85;11.15;;;;;;;-0.37;72.44;98976.80;2145002;82;28814;-63
2021/01/29 01:08:34;;;;;;;23.92;12.28;;;;;;;-0.41;72.34;98960.20;2120981;82;31158;-64
2021/01/29 01:11:36;;;;;;;19.25;10.78;;;;;;;-0.47;72.32;98939.34;2147507;82;33133;-63
2021/01/29 01:14:37;;;;;;;22.80;11.22;;;;;;;-0.50;72.39;98953.45;2151259;82;28869;-62
2021/01/29 01:17:40;;;;;;;25.35;11.45;;;;;;;-0.55;72.43;98952.70;2130863;82;27646;-63
2021/01/29 01:20:42;;;;;;;24.60;11.22;;;;;;;-0.58;72.51;98954.55;2121463;82;28828;-63
2021/01/29 01:23:44;;;;;;;24.85;12.20;;;;;;;-0.59;72.65;98974.71;2138236;81;32132;-63
2021/01/29 01:26:45;;;;;;;23.22;10.53;;;;;;;-0.58;72.82;98977.75;2135657;82;33206;-63
2021/01/29 01:29:47;;;;;;;25.45;11.63;;;;;;;-0.57;72.88;98975.55;2146948;82;29169;-63
2021/01/29 01:32:48;;;;;;;21.80;11.35;;;;;;;-0.52;72.99;98976.73;2131100;82;27689;-64
2021/01/29 01:35:50;;;;;;;22.90;10.85;;;;;;;-0.51;73.06;98979.77;2136974;82;29797;-63
2021/01/29 01:38:52;;;;;;;23.07;11.25;;;;;;;-0.47;73.03;98978.33;2144318;82;31417;-63
2021/01/29 01:41:55;;;;;;;24.23;12.60;;;;;;;-0.46;73.17;98976.11;2118918;82;34158;-64
2021/01/29 01:44:57;;;;;;;27.00;11.57;;;;;;;-0.42;73.13;98966.83;2124396;82;30112;-62
2021/01/29 01:48:04;;;;;;;26.15;11.35;;;;;;;-0.40;73.18;98970.30;2154506;82;27607;-62
2021/01/29 01:51:22;;;;;;;23.57;11.85;;;;;;;-0.38;73.08;98960.59;2153596;82;29242;-62
2021/01/29 01:54:44;;;;;;;22.85;11.48;;;;;;;-0.36;73.00;98958.32;2108324;84;31529;-63
2021/01/29 01:57:56;;;;;;;21.13;11.00;;;;;;;-0.31;73.10;98959.07;2294853;76;35926;-62
2021/01/29 02:00:58;;;;;;;21.80;11.43;;;;;;;-0.41;73.17;98948.36;2258545;78;27585;-62
2021/01/29 02:04:00;;;;;;;22.67;11.50;;;;;;;-0.32;73.13;98949.45;2253370;78;28797;-62
2021/01/29 02:07:24;;;;;;;26.10;11.80;;;;;;;-0.28;73.12;98949.37;2245263;78;31590;-63
2021/01/29 02:10:30;;;;;;;22.87;11.53;;;;;;;-0.26;73.01;98943.62;2219283;80;34466;-63
2021/01/29 02:13:32;;;;;;;26.55;11.80;;;;;;;-0.26;72.95;98950.20;2258833;78;28597;-65
2021/01/29 02:16:56;;;;;;;20.45;10.78;;;;;;;-0.26;73.00;98947.56;2257032;78;27746;-64
2021/01/29 02:20:30;;;;;;;25.10;11.88;;;;;;;-0.26;73.00;98950.20;2258457;78;29837;-63
2021/01/29 02:24:08;;;;;;;21.25;11.03;;;;;;;-0.26;72.93;98947.09;2226633;78;31632;-65
2021/01/29 02:27:31;;;;;;;20.37;10.50;;;;;;;-0.25;72.96;98944.03;2138948;82;33542;-63
2021/01/29 02:31:12;;;;;;;24.43;10.75;;;;;;;-0.27;72.89;98949.31;2142562;82;29918;-63
2021/01/29 02:34:32;;;;;;;22.77;11.60;;;;;;;-0.24;72.90;98943.09;2321443;75;27703;-62
2021/01/29 02:38:28;;;;;;;24.27;11.80;;;;;;;-0.32;72.91;98944.63;2285831;77;27689;-63
2021/01/29 02:41:51;;;;;;;21.82;11.50;;;;;;;-0.36;72.78;98932.01;2281519;77;28766;-64
2021/01/29 02:45:09;;;;;;;24.50;11.85;;;;;;;-0.43;72.73;98944.06;2301202;77;31578;-63
2021/01/29 02:48:42;;;;;;;23.18;11.63;;;;;;;-0.48;72.80;98943.72;2298155;75;34432;-64
2021/01/29 02:52:17;;;;;;;20.27;10.98;;;;;;;-0.54;72.56;98935.13;2283105;77;29490;-65
2021/01/29 02:55:33;;;;;;;23.73;12.15;;;;;;;-0.62;72.70;98945.42;2302226;77;27569;-64
2021/01/29 02:58:49;;;;;;;24.47;12.03;;;;;;;-0.63;72.87;98951.58;2295563;77;30165;-64
2021/01/29 03:02:20;;;;;;;25.05;13.20;;;;;;;-0.63;73.01;98959.47;2289045;77;31136;-67
2021/01/29 03:05:43;;;;;;;23.45;10.75;;;;;;;-0.60;73.05;98961.14;2300323;77;34014;-63
2021/01/29 03:08:53;;;;;;;19.17;10.35;;;;;;;-0.59;72.96;98964.19;2301107;77;30202;-64
2021/01/29 03:12:06;;;;;;;23.38;10.20;;;;;;;-0.58;72.95;98958.50;2289181;77;27711;-63
2021/01/29 03:15:33;;;;;;;20.72;8.95;;;;;;;-0.58;72.96;98947.98;2276663;77;28810;-63
2021/01/29 03:18:40;;;;;;;18.98;9.80;;;;;;;-0.59;72.98;98964.19;2278484;77;31187;-62
2021/01/29 03:21:46;;;;;;;20.20;9.75;;;;;;;-0.59;73.04;98953.67;2273061;77;33113;-62
2021/01/29 03:24:59;;;;;;;18.10;9.60;;;;;;;-0.57;73.07;98954.93;2180820;81;31252;-62
2021/01/29 03:28:09;;;;;;;21.23;9.98;;;;;;;-0.57;73.03;98954.50;2208206;80;28067;-62
2021/01/29 03:31:13;;;;;;;15.20;8.73;;;;;;;-0.57;73.03;98945.73;2232817;78;30095;-62
2021/01/29 03:34:24;;;;;;;15.67;7.07;;;;;;;-0.60;72.70;98941.42;2184975;80;32545;-63
2021/01/29 03:37:58;;;;;;;18.05;8.78;;;;;;;-0.65;72.82;98939.34;2221103;78;33127;-63
2021/01/29 03:41:11;;;;;;;17.67;9.38;;;;;;;-0.66;72.84;98937.66;2207276;80;28920;-63
2021/01/29 03:44:34;;;;;;;15.80;7.92;;;;;;;-0.70;72.89;98945.20;2215498;80;27910;-63
2021/01/29 03:47:51;;;;;;;14.93;7.78;;;;;;;-0.73;72.79;98938.70;2199949;80;28835;-63
2021/01/29 03:51:08;;;;;;;18.02;8.18;;;;;;;-0.77;72.89;98948.45;2221518;78;31555;-63
2021/01/29 03:54:18;;;;;;;15.45;8.15;;;;;;;-0.79;72.91;98930.52;2212147;80;33646;-64
2021/01/29 03:57:28;;;;;;;16.67;7.17;;;;;;;-0.78;72.99;98929.16;2210466;80;29295;-64
2021/01/29 04:00:56;;;;;;;16.05;7.85;;;;;;;-0.76;73.00;98919.94;2252999;77;28170;-64
2021/01/29 04:04:22;;;;;;;13.90;7.25;;;;;;;-0.75;72.98;98916.41;2189151;80;28799;-65
2021/01/29 04:07:31;;;;;;;16.62;7.25;;;;;;;-0.75;73.12;98920.34;2218523;80;31640;-64
2021/01/29 04:10:35;;;;;;;13.13;7.28;;;;;;;-0.71;73.12;98925.06;2191681;80;33034;-62
2021/01/29 04:13:42;;;;;;;14.18;7.00;;;;;;;-0.68;73.11;98920.58;2245506;78;29813;-63
2021/01/29 04:16:46;;;;;;;12.13;7.12;;;;;;;-0.66;73.18;98918.78;2191568;80;27692;-63
2021/01/29 04:19:51;;;;;;;16.12;8.50;;;;;;;-0.64;73.07;98923.98;2195453;79;28737;-64
2021/01/29 04:22:55;;;;;;;17.87;9.40;;;;;;;-0.62;73.11;98928.76;2223561;79;32035;-64
2021/01/29 04:26:02;;;;;;;20.25;10.05;;;;;;;-0.64;73.05;98932.75;2187887;80;32289;-64
2021/01/29 04:29:16;;;;;;;21.65;9.88;;;;;;;-0.63;73.16;98935.80;2227639;78;28838;-62
2021/01/29 04:32:23;;;;;;;21.45;8.73;;;;;;;-0.61;73.25;98935.75;2254981;78;27661;-66
2021/01/29 04:35:26;;;;;;;20.77;8.40;;;;;;;-0.58;73.21;98946.19;2205966;80;29855;-65
2021/01/29 04:38:36;;;;;;;16.25;7.70;;;;;;;-0.60;73.04;98951.09;2225913;80;31174;-66
2021/01/29 04:42:30;;;;;;;12.00;6.65;;;;;;;-0.57;73.20;98937.83;2218096;79;33190;-66
2021/01/29 04:45:52;;;;;;;11.95;6.85;;;;;;;-0.53;73.20;98946.06;2223540;80;28914;-65
2021/01/29 04:49:14;;;;;;;14.50;6.85;;;;;;;-0.51;73.12;98933.30;2241752;79;27828;-64
2021/01/29 04:52:40;;;;;;;18.12;8.25;;;;;;;-0.50;73.08;98923.63;2220388;80;29689;-65
2021/01/29 04:55:56;;;;;;;13.10;6.95;;;;;;;-0.50;72.94;98907.41;2187000;81;31135;-64
2021/01/29 04:59:23;;;;;;;12.13;6.05;;;;;;;-0.50;73.03;98907.84;2185351;81;33745;-65
2021/01/29 05:02:49;;;;;;;12.47;5.45;;;;;;;-0.49;73.00;98909.58;2225446;80;28953;-64
2021/01/29 05:06:14;;;;;;;12.88;5.55;;;;;;;-0.51;72.88;98913.58;2220050;80;27646;-68
2021/01/29 05:10:12;;;;;;;10.23;5.95;;;;;;;-0.52;72.90;98907.02;2241821;77;28817;-67
2021/01/29 05:13:34;;;;;;;12.82;5.62;;;;;;;-0.52;72.96;98906.59;2223889;80;30379;-67
2021/01/29 05:17:12;;;;;;;11.28;5.67;;;;;;;-0.53;72.95;98909.23;2285748;77;33004;-67
2021/01/29 05:20:53;;;;;;;12.80;5.72;;;;;;;-0.54;72.85;98912.77;2208258;80;28852;-67
2021/01/29 05:24:25;;;;;;;10.65;5.65;;;;;;;-0.53;73.00;98904.86;2221184;78;27583;-65
2021/01/29 05:27:53;;;;;;;12.40;5.55;;;;;;;-0.53;72.90;98894.34;2235069;78;28802;-67
2021/01/29 05:31:06;;;;;;;12.58;7.12;;;;;;;-0.53;72.95;98885.56;2214140;80;32430;-67
2021/01/29 05:34:47;;;;;;;19.67;6.62;;;;;;;-0.52;72.96;98882.91;2247750;77;33619;-65
2021/01/29 05:38:16;;;;;;;16.85;7.55;;;;;;;-0.51;72.90;98890.34;2230297;77;29797;-67
2021/01/29 05:41:44;;;;;;;12.98;7.00;;;;;;;-0.53;72.97;98887.77;2229894;79;27603;-68
2021/01/29 05:45:28;;;;;;;15.93;7.83;;;;;;;-0.53;72.94;98884.25;2256613;77;30085;-67
2021/01/29 05:49:00;;;;;;;18.85;8.73;;;;;;;-0.52;72.98;98882.03;2227351;79;30565;-67
2021/01/29 05:52:33;;;;;;;14.38;6.92;;;;;;;-0.52;72.99;98880.72;2260154;77;33085;-69
2021/01/29 05:55:56;;;;;;;19.27;8.45;;;;;;;-0.52;73.01;98885.55;2208064;79;28852;-69
2021/01/29 05:59:29;;;;;;;19.45;9.10;;;;;;;-0.55;72.95;98884.30;2239516;78;27662;-68
2021/01/29 06:02:39;;;;;;;15.43;7.72;;;;;;;-0.53;73.01;98875.05;2255970;77;28133;-69
2021/01/29 06:06:09;;;;;;;17.85;7.97;;;;;;;-0.52;73.13;98871.08;2229440;79;31157;-69
2021/01/29 06:09:52;;;;;;;21.27;8.10;;;;;;;-0.51;73.04;98862.72;2271765;77;34031;-67
2021/01/29 06:13:51;;;;;;;16.42;8.10;;;;;;;-0.49;73.04;98864.39;2208405;79;28774;-69
2021/01/29 06:17:35;;;;;;;23.67;9.78;;;;;;;-0.47;72.96;98864.37;2264009;77;27690;-65
2021/01/29 06:21:00;;;;;;;25.05;10.25;;;;;;;-0.48;72.97;98871.84;2270950;77;29242;-67
2021/01/29 06:24:36;;;;;;;26.57;10.17;;;;;;;-0.43;72.82;98862.50;2296699;77;27595;-67
2021/01/29 06:28:05;;;;;;;28.87;10.38;;;;;;;-0.49;72.85;98868.80;2248528;78;27648;-68
2021/01/29 06:31:34;;;;;;;26.20;11.18;;;;;;;-0.52;72.81;98869.77;2245423;78;28750;-66
2021/01/29 06:35:15;;;;;;;21.52;10.68;;;;;;;-0.52;72.88;98863.19;2195207;80;31330;-65
2021/01/29 06:38:34;;;;;;;22.20;10.18;;;;;;;-0.50;72.84;98860.06;2203002;80;33545;-63
2021/01/29 06:41:51;;;;;;;22.62;10.38;;;;;;;-0.48;72.98;98858.22;2176942;81;29905;-66
2021/01/29 06:45:35;;;;;;;19.48;8.45;;;;;;;-0.46;72.88;98850.31;2171889;81;28191;-65
2021/01/29 06:49:23;;;;;;;17.30;8.85;;;;;;;-0.43;72.82;98841.45;2180220;80;29348;-67
2021/01/29 06:52:34;;;;;;;19.52;7.90;;;;;;;-0.39;72.85;98835.21;2203658;80;30379;-65
2021/01/29 06:55:44;;;;;;;15.15;7.42;;;;;;;-0.36;72.88;98830.71;2157683;81;34487;-69
2021/01/29 06:59:20;;;;;;;16.62;7.75;;;;;;;-0.34;72.72;98826.73;2170444;81;28864;-68
2021/01/29 07:03:10;;;;;;;16.17;7.50;;;;;;;-0.35;72.44;98825.02;2192925;81;27594;-66
2021/01/29 07:06:45;;;;;;;23.67;9.50;;;;;;;-0.36;72.54;98821.50;2162850;81;28729;-68
2021/01/29 07:10:23;;;;;;;17.17;8.18;;;;;;;-0.35;72.60;98831.59;2155690;82;31163;-64
2021/01/29 07:13:51;;;;;;;15.63;7.87;;;;;;;-0.37;72.50;98827.67;2170801;81;32886;-74
2021/01/29 07:17:13;;;;;;;15.90;8.10;;;;;;;-0.38;72.44;98827.73;2171471;81;28851;-65
2021/01/29 07:21:03;;;;;;;17.50;7.40;;;;;;;-0.40;72.40;98815.06;2169902;81;27710;-72
2021/01/29 07:24:50;;;;;;;17.10;7.65;;;;;;;-0.41;72.43;98812.02;2079357;85;28654;-72
2021/01/29 07:28:09;;;;;;;20.97;10.08;;;;;;;-0.42;72.42;98798.02;2111418;84;32116;-70
2021/01/29 07:31:47;;;;;;;22.50;10.32;;;;;;;-0.41;72.37;98787.88;2109903;84;34130;-76
2021/01/29 07:35:03;;;;;;;16.93;8.88;;;;;;;-0.37;72.44;98790.83;2075867;85;28875;-69
2021/01/29 07:38:25;;;;;;;17.45;9.10;;;;;;;-0.32;72.41;98794.20;2068427;85;27684;-71
2021/01/29 07:42:08;;;;;;;23.27;11.12;;;;;;;-0.22;72.25;98797.86;2082646;84;28891;-67
2021/01/29 07:45:50;;;;;;;23.60;11.20;;;;;;;-0.17;72.13;98794.20;2081830;85;31149;-63
2021/01/29 07:49:22;;;;;;;26.42;11.55;;;;;;;-0.02;72.25;98794.17;2110680;84;33111;-66
2021/01/29 07:52:46;;;;;;;24.77;12.80;;;;;;;0.18;72.30;98799.28;2118951;82;29818;-67
2021/01/29 07:56:19;;;;;;;25.43;14.10;;;;;;;0.37;72.36;98794.75;2117830;84;27734;-68
2021/01/29 07:59:54;;;;;;;20.85;12.47;;;;;;;0.57;72.24;98780.47;2117396;82;28846;-67
2021/01/29 08:03:16;;;;;;;27.82;13.25;;;;;;;0.77;72.16;98776.74;2074605;85;31236;-71
2021/01/29 08:06:33;;;;;;;31.30;15.63;;;;;;;0.91;71.89;98767.89;2074359;85;33113;-70
2021/01/29 08:09:39;;;;;;;19.75;10.70;;;;;;;1.00;71.63;98761.44;2086381;85;28871;-68
2021/01/29 08:12:46;;;;;;;20.05;10.85;;;;;;;1.10;71.53;98758.86;2083280;84;27699;-60
2021/01/29 08:15:55;;;;;;;23.70;11.10;;;;;;;1.17;71.34;98751.15;2110430;84;28840;-69
2021/01/29 08:19:14;;;;;;;25.27;10.70;;;;;;;1.24;71.22;98757.53;2116917;84;31153;-68
2021/01/29 08:23:10;;;;;;;23.57;11.00;;;;;;;1.31;71.16;98766.48;2085668;84;33129;-66
2021/01/29 08:26:45;;;;;;;21.33;11.73;;;;;;;1.37;71.01;98756.16;2111404;84;29840;-67
2021/01/29 08:30:01;;;;;;;18.10;9.48;;;;;;;1.35;70.94;98731.60;2111078;84;28158;-66
2021/01/29 08:33:38;;;;;;;17.30;11.35;;;;;;;1.35;70.66;98729.81;2111166;84;29812;-66
2021/01/29 08:37:19;;;;;;;16.17;9.35;;;;;;;1.30;70.18;98738.81;2088231;84;31397;-69
2021/01/29 08:40:35;;;;;;;19.85;9.98;;;;;;;1.24;70.46;98741.23;2075972;85;33181;-66
2021/01/29 08:44:24;;;;;;;21.80;10.18;;;;;;;1.22;70.21;98732.51;2075789;85;29818;-66
2021/01/29 08:47:40;;;;;;;19.37;9.83;;;;;;;1.21;70.34;98737.38;2076875;83;27604;-66
2021/01/29 08:51:09;;;;;;;18.82;12.05;;;;;;;1.19;70.07;98737.45;2076147;85;28836;-66
2021/01/29 08:54:46;;;;;;;16.85;10.03;;;;;;;1.18;70.31;98729.58;2076029;85;31733;-65
2021/01/29 08:58:17;;;;;;;20.97;8.83;;;;;;;1.15;69.74;98725.28;2076076;85;33071;-65
2021/01/29 09:01:52;;;;;;;19.75;8.58;;;;;;;1.13;69.88;98726.27;2074343;85;30228;-65
2021/01/29 09:05:05;;;;;;;17.92;9.65;;;;;;;1.10;69.68;98712.72;2076413;83;27744;-65
2021/01/29 09:08:09;;;;;;;13.15;7.65;;;;;;;1.10;70.00;98709.23;2075297;85;29065;-65
2021/01/29 09:11:25;;;;;;;18.50;7.80;;;;;;;1.16;70.03;98707.70;2075342;85;32046;-67
2021/01/29 09:14:43;;;;;;;12.30;7.17;;;;;;;1.17;69.69;98708.07;2075872;85;33116;-68
2021/01/29 09:21:19;;;;;;;13.07;6.77;;;;;;;1.31;69.39;98708.88;2252235;77;27699;-65
2021/01/29 09:25:01;;;;;;;20.95;11.43;;;;;;;1.27;69.32;98714.74;2217399;80;27799;-64
2021/01/29 09:31:43;;;;;;;15.53;7.57;;;;;;;1.28;69.20;98690.09;2297467;77;27677;-69
2021/01/29 09:34:50;;;;;;;19.82;7.87;;;;;;;1.28;69.47;98695.80;2180365;80;27708;-65
2021/01/29 09:37:54;;;;;;;14.25;7.90;;;;;;;1.32;69.19;98694.78;2178940;81;29704;-65
2021/01/29 09:41:32;;;;;;;13.18;8.20;;;;;;;1.37;69.02;98692.83;2178917;81;31132;-66
2021/01/29 09:44:59;;;;;;;18.77;8.48;;;;;;;1.38;68.82;98689.28;2149335;81;33099;-66
2021/01/29 09:48:11;;;;;;;17.75;8.80;;;;;;;1.41;68.97;98677.73;2178688;81;28683;-65
2021/01/29 09:51:28;;;;;;;15.32;8.38;;;;;;;1.48;68.98;98670.84;2139667;83;27795;-70
2021/01/29 09:54:52;;;;;;;16.10;9.75;;;;;;;1.51;68.76;98658.86;2184592;80;28818;-65
2021/01/29 09:58:07;;;;;;;12.73;6.30;;;;;;;1.59;68.73;98661.63;2176763;81;31563;-65
2021/01/29 10:01:13;;;;;;;13.70;7.17;;;;;;;1.63;68.29;98645.64;2185476;80;33140;-64
2021/01/29 10:05:07;;;;;;;12.88;6.70;;;;;;;1.65;68.22;98638.97;2147208;81;28866;-65
2021/01/29 10:08:30;;;;;;;13.80;8.00;;;;;;;1.78;67.97;98627.46;2321712;76;37301;-68
2021/01/29 10:11:40;;;;;;;13.95;6.90;;;;;;;1.92;68.13;98626.88;2295740;77;27717;-66
2021/01/29 10:15:11;;;;;;;11.63;7.00;;;;;;;2.05;67.99;98620.18;2291840;77;28910;-69
2021/01/29 10:18:17;;;;;;;12.73;7.22;;;;;;;2.13;67.98;98620.70;2264835;77;31117;-65
2021/01/29 10:21:20;;;;;;;17.00;8.18;;;;;;;2.18;67.56;98613.89;2263570;78;33945;-68
2021/01/29 10:24:40;;;;;;;20.23;10.55;;;;;;;2.20;67.60;98607.24;2264413;78;28594;-66
2021/01/29 10:27:53;;;;;;;21.10;9.13;;;;;;;2.29;67.52;98605.52;2264786;78;27632;-66
2021/01/29 10:31:04;;;;;;;19.40;9.40;;;;;;;2.39;67.70;98596.28;2264601;77;28875;-66
2021/01/29 10:38:10;;;;;;;19.73;9.73;;;;;;;2.69;67.30;98588.36;2343169;76;27660;-68
2021/01/29 10:41:47;;;;;;;13.70;7.53;;;;;;;2.71;67.06;98582.54;2303524;77;27716;-68
2021/01/29 10:44:52;;;;;;;17.80;10.45;;;;;;;2.74;66.42;98579.76;2303493;77;28801;-66
2021/01/29 10:48:03;;;;;;;13.35;7.20;;;;;;;2.79;66.79;98582.19;2303365;77;31195;-67
2021/01/29 10:51:20;;;;;;;19.45;9.73;;;;;;;2.83;66.31;98578.48;2297836;77;33101;-69
2021/01/29 10:54:38;;;;;;;20.12;9.70;;;;;;;2.87;66.42;98574.30;2261631;78;28535;-71
2021/01/29 10:57:51;;;;;;;20.95;10.18;;;;;;;2.84;65.55;98570.47;2262347;77;27688;-68
2021/01/29 11:01:06;;;;;;;18.80;11.03;;;;;;;2.80;66.05;98560.98;2261480;78;28818;-70
2021/01/29 11:04:19;;;;;;;14.50;8.20;;;;;;;2.78;66.08;98560.19;2233588;78;30945;-69
2021/01/29 11:07:29;;;;;;;21.00;9.85;;;;;;;2.75;65.60;98565.61;2261817;78;33096;-69
2021/01/29 11:10:33;;;;;;;23.73;10.80;;;;;;;2.74;65.49;98559.93;2261743;77;28849;-68
2021/01/29 11:14:06;;;;;;;22.55;11.57;;;;;;;2.67;65.14;98555.39;2261810;78;27807;-68
2021/01/29 11:17:27;;;;;;;23.77;10.70;;;;;;;2.62;65.18;98551.24;2261449;78;29821;-71
2021/01/29 11:20:34;;;;;;;34.10;16.90;;;;;;;2.54;65.00;98550.27;2261785;78;32132;-69
2021/01/29 11:24:12;;;;;;;19.77;10.65;;;;;;;2.47;65.20;98547.49;2261554;78;32792;-65
2021/01/29 11:27:22;;;;;;;39.63;19.20;;;;;;;2.40;65.26;98549.08;2261770;78;29359;-72
2021/01/29 11:30:35;;;;;;;58.42;24.27;;;;;;;2.31;65.24;98549.50;2261041;78;27705;-71
2021/01/29 11:33:42;;;;;;;27.45;13.35;;;;;;;2.31;65.42;98541.58;2261663;78;28916;-71
2021/01/29 11:36:56;;;;;;;27.42;13.72;;;;;;;2.24;64.92;98544.08;2287340;77;31190;-69
2021/01/29 11:40:06;;;;;;;66.77;25.88;;;;;;;2.17;65.13;98543.97;2302021;77;33169;-70
2021/01/29 11:43:35;;;;;;;109.40;41.60;;;;;;;2.09;64.94;98537.22;2288067;77;28860;-68
2021/01/29 11:47:01;;;;;;;128.60;48.80;;;;;;;2.02;65.39;98535.79;2207899;80;27810;-68
2021/01/29 11:50:17;;;;;;;71.25;30.37;;;;;;;2.03;65.29;98518.14;2204209;80;29796;-70
2021/01/29 11:53:35;;;;;;;125.30;52.58;;;;;;;1.97;65.43;98525.88;2211069;80;31152;-70
2021/01/29 11:57:17;;;;;;;;;;;;;;;1.94;65.39;98524.23;2215047;79;34068;-69
2021/01/29 12:00:40;;;;;;;44.42;20.32;;;;;;;1.89;65.19;98517.44;2212582;80;28863;-68
2021/01/29 12:03:56;;;;;;;66.75;29.50;;;;;;;1.78;65.33;98516.58;2212401;80;27675;-69
2021/01/29 12:07:33;;;;;;;33.18;16.12;;;;;;;1.75;65.27;98507.46;2181323;80;27749;-66
2021/01/29 12:10:50;;;;;;;73.15;39.55;;;;;;;1.65;65.01;98499.08;2216837;80;31140;-68
2021/01/29 12:14:19;;;;;;;65.42;36.83;;;;;;;1.65;65.65;98501.27;2216206;80;33957;-70
2021/01/29 12:17:27;;;;;;;69.15;41.30;;;;;;;1.65;65.54;98497.31;2209926;80;29727;-68
2021/01/29 12:20:33;;;;;;;32.80;16.93;;;;;;;1.68;65.38;98493.67;2207585;80;27682;-69
2021/01/29 12:24:15;;;;;;;37.70;20.30;;;;;;;1.64;65.43;98488.12;2212562;80;29702;-69
2021/01/29 12:27:29;;;;;;;25.50;13.75;;;;;;;1.66;65.24;98481.00;2177761;81;31074;-67
2021/01/29 12:30:45;;;;;;;21.80;11.22;;;;;;;1.57;65.22;98480.08;2178337;81;33351;-69
2021/01/29 12:33:55;;;;;;;23.70;13.15;;;;;;;1.53;65.17;98468.77;2174440;81;28145;-70
2021/01/29 12:37:12;;;;;;;23.60;12.40;;;;;;;1.49;65.15;98461.45;2176428;80;27872;-69
2021/01/29 12:40:23;;;;;;;23.57;11.73;;;;;;;1.45;65.46;98453.27;2178495;81;29054;-69
2021/01/29 12:43:31;;;;;;;22.40;12.07;;;;;;;1.39;65.58;98444.31;2174222;80;32123;-72
2021/01/29 12:46:37;;;;;;;22.52;11.78;;;;;;;1.40;65.72;98443.84;2178198;81;33172;-70
2021/01/29 12:50:05;;;;;;;25.72;14.18;;;;;;;1.39;65.58;98440.36;2178044;81;29832;-67
2021/01/29 12:53:28;;;;;;;22.60;12.25;;;;;;;1.39;65.87;98440.36;2174200;81;27673;-68
2021/01/29 12:56:42;;;;;;;25.02;12.40;;;;;;;1.39;65.66;98440.36;2187874;80;28926;-69
2021/01/29 12:59:50;;;;;;;34.15;18.27;;;;;;;1.30;65.39;98435.00;2250740;79;31155;-74
2021/01/29 13:03:03;;;;;;;26.93;14.65;;;;;;;1.23;65.78;98428.73;2252223;78;33092;-75
2021/01/29 13:06:22;;;;;;;19.00;11.20;;;;;;;1.21;65.97;98420.87;2223576;79;29034;-66
2021/01/29 13:09:49;;;;;;;22.13;12.30;;;;;;;1.18;65.97;98411.75;2217653;79;27714;-67
2021/01/29 13:13:06;;;;;;;16.87;9.98;;;;;;;1.10;66.16;98409.92;2225500;79;29755;-68
2021/01/29 13:16:28;;;;;;;15.30;9.58;;;;;;;1.08;66.44;98403.37;2222679;79;31457;-68
2021/01/29 13:19:34;;;;;;;20.08;11.35;;;;;;;1.07;66.55;98401.69;2251141;79;33189;-67
2021/01/29 13:22:54;;;;;;;23.98;11.30;;;;;;;1.06;66.62;98391.58;2204169;80;28880;-67
2021/01/29 13:26:12;;;;;;;25.52;13.13;;;;;;;1.06;66.91;98394.69;2176132;81;27782;-69
2021/01/29 13:29:27;;;;;;;23.62;12.35;;;;;;;1.09;66.80;98381.83;2176835;80;28235;-71
2021/01/29 13:36:11;;;;;;;32.47;14.27;;;;;;;1.14;66.45;98371.95;2237599;77;28089;-66
2021/01/29 13:39:23;;;;;;;26.77;12.78;;;;;;;1.04;66.56;98373.64;2180425;80;27785;-65
2021/01/29 13:42:32;;;;;;;40.60;18.90;;;;;;;1.03;66.60;98369.29;2194921;80;29788;-68
2021/01/29 13:45:35;;;;;;;38.28;17.57;;;;;;;1.01;66.62;98357.95;2178784;81;31141;-67
2021/01/29 13:48:37;;;;;;;30.65;14.80;;;;;;;1.00;66.71;98360.66;2179411;80;33098;-68
2021/01/29 13:51:39;;;;;;;25.00;12.73;;;;;;;1.03;66.73;98370.61;2189624;80;28506;-66
2021/01/29 13:54:43;;;;;;;24.75;12.53;;;;;;;1.04;66.75;98355.66;2216275;80;28068;-67
2021/01/29 13:58:00;;;;;;;24.75;11.78;;;;;;;1.06;66.89;98356.45;2188309;80;29738;-67
2021/01/29 14:01:25;;;;;;;24.50;11.73;;;;;;;1.06;66.79;98354.66;2179501;80;31114;-66
2021/01/29 14:04:45;;;;;;;23.62;11.22;;;;;;;1.09;66.72;98347.55;2055552;84;34067;-65
2021/01/29 14:07:49;;;;;;;32.23;11.10;;;;;;;1.10;66.42;98346.63;2060962;86;30036;-69
2021/01/29 14:11:00;;;;;;;24.52;11.15;;;;;;;1.06;65.80;98342.80;2067378;86;27701;-67
2021/01/29 14:14:32;;;;;;;23.02;10.82;;;;;;;1.02;65.62;98343.84;2086192;84;28919;-71
2021/01/29 14:18:19;;;;;;;25.45;11.75;;;;;;;1.03;65.93;98340.28;2063565;84;32130;-60
2021/01/29 14:21:35;;;;;;;22.35;10.95;;;;;;;1.06;65.98;98334.05;2059353;86;33149;-64
2021/01/29 14:24:58;;;;;;;25.48;12.70;;;;;;;1.08;65.80;98328.22;2062334;86;28857;-67
2021/01/29 14:28:37;;;;;;;27.42;11.50;;;;;;;1.14;66.19;98327.97;2060188;86;28378;-64
2021/01/29 14:32:03;;;;;;;31.20;14.13;;;;;;;1.20;66.11;98318.92;2088979;84;28844;-68
2021/01/29 14:35:25;;;;;;;27.93;12.40;;;;;;;1.26;65.88;98318.67;2067535;84;31167;-68
2021/01/29 14:38:51;;;;;;;31.33;14.45;;;;;;;1.29;66.09;98314.59;2086996;83;33617;-62
2021/01/29 14:42:11;;;;;;;31.90;14.70;;;;;;;1.32;65.93;98316.22;2071484;84;28871;-64
2021/01/29 14:45:44;;;;;;;30.20;12.93;;;;;;;1.39;66.14;98311.52;2092452;84;27656;-64
2021/01/29 14:49:33;;;;;;;21.40;11.53;;;;;;;1.43;66.17;98305.20;2096021;84;30317;-64
2021/01/29 14:53:12;;;;;;;20.52;10.00;;;;;;;1.39;65.89;98300.53;2097043;84;31350;-72
2021/01/29 14:56:43;;;;;;;29.60;16.57;;;;;;;1.31;65.90;98307.47;2097135;84;33127;-61
2021/01/29 14:59:56;;;;;;;42.88;18.92;;;;;;;1.30;65.95;98311.47;2045865;86;28050;-66
2021/01/29 15:03:30;;;;;;;22.23;10.37;;;;;;;1.28;66.07;98305.41;2336014;76;27749;-65
2021/01/29 15:06:36;;;;;;;22.58;11.25;;;;;;;1.19;66.07;98315.45;2259435;78;27761;-63
2021/01/29 15:10:07;;;;;;;18.42;9.35;;;;;;;1.15;66.18;98315.17;2270155;77;28811;-71
2021/01/29 15:13:18;;;;;;;18.62;8.20;;;;;;;1.16;66.46;98309.45;2261825;78;32460;-63
2021/01/29 15:16:42;;;;;;;16.50;7.72;;;;;;;1.18;66.52;98306.27;2261814;78;33057;-64
2021/01/29 15:19:45;;;;;;;23.10;8.78;;;;;;;1.18;66.45;98304.95;2290127;77;28643;-70
2021/01/29 15:23:14;;;;;;;21.35;12.25;;;;;;;1.16;66.51;98310.30;2210879;80;27936;-70
2021/01/29 15:26:20;;;;;;;19.32;10.10;;;;;;;1.12;66.51;98306.55;2130094;83;28879;-64
2021/01/29 15:29:23;;;;;;;16.87;7.95;;;;;;;1.10;66.61;98301.32;2129260;83;32043;-61
2021/01/29 15:32:47;;;;;;;19.95;11.88;;;;;;;1.10;66.54;98303.12;2107796;83;33802;-61
2021/01/29 15:35:53;;;;;;;32.55;17.30;;;;;;;1.07;66.61;98302.80;2110439;84;28867;-66
2021/01/29 15:39:40;;;;;;;49.33;24.65;;;;;;;1.03;66.76;98305.17;2123165;83;27630;-64